sensor_id;sensor_type;location;lat;lon;timestamp;P1;durP1;ratioP1;P2;durP2;ratioP2
75854;SDS011;64502;59.976;30.316;2023-02-11T00:01:23;3.20;;;0.90;;
75854;SDS011;64502;59.976;30.316;2023-02-11T00:03:51;2.45;;;0.50;;
75854;SDS011;64502;59.976;30.316;2023-02-11T00:06:16;5.18;;;0.20;;
75854;SDS011;64502;59.976;30.316;2023-02-11T00:08:42;4.55;;;0.47;;
75854;SDS011;64502;59.976;30.316;2023-02-11T00:11:11;4.53;;;0.20;;
75854;SDS011;64502;59.976;30.316;2023-02-11T00:13:38;1.40;;;0.30;;
75854;SDS011;64502;59.976;30.316;2023-02-11T00:16:05;3.63;;;0.88;;
75854;SDS011;64502;59.976;30.316;2023-02-11T00:18:35;3.17;;;0.30;;
75854;SDS011;64502;59.976;30.316;2023-02-11T00:23:56;6.63;;;1.55;;
75854;SDS011;64502;59.976;30.316;2023-02-11T00:26:25;6.18;;;0.43;;
75854;SDS011;64502;59.976;30.316;2023-02-11T00:28:52;2.60;;;0.20;;
75854;SDS011;64502;59.976;30.316;2023-02-11T00:31:19;6.20;;;0.55;;
75854;SDS011;64502;59.976;30.316;2023-02-11T00:33:45;3.15;;;0.22;;
75854;SDS011;64502;59.976;30.316;2023-02-11T00:36:16;5.25;;;0.52;;
75854;SDS011;64502;59.976;30.316;2023-02-11T00:38:43;2.88;;;0.17;;
75854;SDS011;64502;59.976;30.316;2023-02-11T00:41:10;1.73;;;0.22;;
75854;SDS011;64502;59.976;30.316;2023-02-11T00:43:37;4.85;;;0.52;;
75854;SDS011;64502;59.976;30.316;2023-02-11T00:46:03;3.28;;;0.25;;
75854;SDS011;64502;59.976;30.316;2023-02-11T00:48:29;2.53;;;0.10;;
75854;SDS011;64502;59.976;30.316;2023-02-11T00:50:54;3.55;;;0.47;;
75854;SDS011;64502;59.976;30.316;2023-02-11T00:53:20;2.13;;;0.10;;
75854;SDS011;64502;59.976;30.316;2023-02-11T00:55:45;5.32;;;0.25;;
75854;SDS011;64502;59.976;30.316;2023-02-11T00:58:11;2.58;;;0.10;;
75854;SDS011;64502;59.976;30.316;2023-02-11T01:00:36;2.50;;;0.43;;
75854;SDS011;64502;59.976;30.316;2023-02-11T01:03:02;2.45;;;0.20;;
75854;SDS011;64502;59.976;30.316;2023-02-11T01:05:27;8.77;;;0.63;;
75854;SDS011;64502;59.976;30.316;2023-02-11T01:07:53;4.00;;;0.10;;
75854;SDS011;64502;59.976;30.316;2023-02-11T01:10:19;3.40;;;0.47;;
75854;SDS011;64502;59.976;30.316;2023-02-11T01:12:44;3.85;;;0.10;;
75854;SDS011;64502;59.976;30.316;2023-02-11T01:15:10;3.40;;;0.10;;
75854;SDS011;64502;59.976;30.316;2023-02-11T01:17:39;5.22;;;0.20;;
75854;SDS011;64502;59.976;30.316;2023-02-11T01:20:06;3.38;;;0.70;;
75854;SDS011;64502;59.976;30.316;2023-02-11T01:22:33;5.32;;;0.50;;
75854;SDS011;64502;59.976;30.316;2023-02-11T01:25:01;1.88;;;0.30;;
75854;SDS011;64502;59.976;30.316;2023-02-11T01:27:27;2.55;;;0.25;;
75854;SDS011;64502;59.976;30.316;2023-02-11T01:29:53;2.72;;;0.20;;
75854;SDS011;64502;59.976;30.316;2023-02-11T01:32:18;1.63;;;0.30;;
75854;SDS011;64502;59.976;30.316;2023-02-11T01:34:44;5.18;;;0.30;;
75854;SDS011;64502;59.976;30.316;2023-02-11T01:37:09;3.58;;;0.22;;
75854;SDS011;64502;59.976;30.316;2023-02-11T01:39:35;7.40;;;1.08;;
75854;SDS011;64502;59.976;30.316;2023-02-11T01:42:00;2.30;;;0.47;;
75854;SDS011;64502;59.976;30.316;2023-02-11T01:44:44;3.20;;;0.40;;
75854;SDS011;64502;59.976;30.316;2023-02-11T01:47:09;4.43;;;0.45;;
75854;SDS011;64502;59.976;30.316;2023-02-11T01:49:40;4.00;;;0.35;;
75854;SDS011;64502;59.976;30.316;2023-02-11T01:54:41;4.47;;;0.30;;
75854;SDS011;64502;59.976;30.316;2023-02-11T01:57:29;4.90;;;0.28;;
75854;SDS011;64502;59.976;30.316;2023-02-11T02:05:16;2.63;;;0.10;;
75854;SDS011;64502;59.976;30.316;2023-02-11T02:08:08;4.45;;;0.20;;
75854;SDS011;64502;59.976;30.316;2023-02-11T02:10:42;0.90;;;0.35;;
75854;SDS011;64502;59.976;30.316;2023-02-11T02:13:10;10.55;;;0.43;;
75854;SDS011;64502;59.976;30.316;2023-02-11T02:15:37;4.85;;;0.40;;
75854;SDS011;64502;59.976;30.316;2023-02-11T02:41:00;2.78;;;0.20;;
75854;SDS011;64502;59.976;30.316;2023-02-11T02:43:33;4.85;;;0.68;;
75854;SDS011;64502;59.976;30.316;2023-02-11T02:46:20;4.55;;;0.20;;
75854;SDS011;64502;59.976;30.316;2023-02-11T02:51:42;2.05;;;0.30;;
75854;SDS011;64502;59.976;30.316;2023-02-11T03:02:28;3.70;;;0.30;;
75854;SDS011;64502;59.976;30.316;2023-02-11T03:10:57;2.88;;;0.20;;
75854;SDS011;64502;59.976;30.316;2023-02-11T03:13:29;2.65;;;0.20;;
75854;SDS011;64502;59.976;30.316;2023-02-11T03:15:58;5.78;;;0.40;;
75854;SDS011;64502;59.976;30.316;2023-02-11T03:18:32;2.15;;;0.35;;
75854;SDS011;64502;59.976;30.316;2023-02-11T03:21:00;2.50;;;0.43;;
75854;SDS011;64502;59.976;30.316;2023-02-11T03:26:02;1.58;;;0.10;;
75854;SDS011;64502;59.976;30.316;2023-02-11T03:28:50;4.57;;;0.40;;
75854;SDS011;64502;59.976;30.316;2023-02-11T03:31:25;1.48;;;0.00;;
75854;SDS011;64502;59.976;30.316;2023-02-11T03:34:09;4.85;;;0.20;;
75854;SDS011;64502;59.976;30.316;2023-02-11T03:36:50;3.10;;;0.38;;
75854;SDS011;64502;59.976;30.316;2023-02-11T03:39:24;2.60;;;0.65;;
75854;SDS011;64502;59.976;30.316;2023-02-11T03:41:55;4.95;;;0.70;;
75854;SDS011;64502;59.976;30.316;2023-02-11T03:44:24;5.35;;;0.43;;
75854;SDS011;64502;59.976;30.316;2023-02-11T03:46:53;4.43;;;0.50;;
75854;SDS011;64502;59.976;30.316;2023-02-11T03:49:20;3.92;;;0.20;;
75854;SDS011;64502;59.976;30.316;2023-02-11T03:51:49;4.55;;;0.32;;
75854;SDS011;64502;59.976;30.316;2023-02-11T03:54:23;4.88;;;0.25;;
75854;SDS011;64502;59.976;30.316;2023-02-11T03:56:54;1.50;;;0.50;;
75854;SDS011;64502;59.976;30.316;2023-02-11T03:59:22;4.30;;;0.38;;
75854;SDS011;64502;59.976;30.316;2023-02-11T04:01:47;1.85;;;0.30;;
75854;SDS011;64502;59.976;30.316;2023-02-11T04:04:13;6.25;;;0.45;;
75854;SDS011;64502;59.976;30.316;2023-02-11T04:06:39;3.05;;;0.30;;
75854;SDS011;64502;59.976;30.316;2023-02-11T04:09:05;7.57;;;0.50;;
75854;SDS011;64502;59.976;30.316;2023-02-11T04:11:30;3.03;;;0.20;;
75854;SDS011;64502;59.976;30.316;2023-02-11T04:13:56;5.57;;;0.20;;
75854;SDS011;64502;59.976;30.316;2023-02-11T04:16:22;3.05;;;0.20;;
75854;SDS011;64502;59.976;30.316;2023-02-11T04:18:48;3.15;;;0.22;;
75854;SDS011;64502;59.976;30.316;2023-02-11T04:21:13;4.13;;;0.20;;
75854;SDS011;64502;59.976;30.316;2023-02-11T04:23:39;1.63;;;0.20;;
75854;SDS011;64502;59.976;30.316;2023-02-11T04:26:04;4.53;;;0.20;;
75854;SDS011;64502;59.976;30.316;2023-02-11T04:28:30;6.88;;;0.10;;
75854;SDS011;64502;59.976;30.316;2023-02-11T04:30:56;7.90;;;0.80;;
75854;SDS011;64502;59.976;30.316;2023-02-11T04:33:22;1.60;;;0.10;;
75854;SDS011;64502;59.976;30.316;2023-02-11T04:35:47;2.58;;;0.60;;
75854;SDS011;64502;59.976;30.316;2023-02-11T04:38:13;4.32;;;0.52;;
75854;SDS011;64502;59.976;30.316;2023-02-11T04:40:39;2.83;;;0.65;;
75854;SDS011;64502;59.976;30.316;2023-02-11T04:43:05;1.70;;;0.10;;
75854;SDS011;64502;59.976;30.316;2023-02-11T04:45:31;3.17;;;0.40;;
75854;SDS011;64502;59.976;30.316;2023-02-11T04:47:56;3.78;;;0.25;;
75854;SDS011;64502;59.976;30.316;2023-02-11T04:50:22;3.00;;;0.38;;
75854;SDS011;64502;59.976;30.316;2023-02-11T04:52:47;6.30;;;0.55;;
75854;SDS011;64502;59.976;30.316;2023-02-11T04:55:13;6.72;;;0.52;;
75854;SDS011;64502;59.976;30.316;2023-02-11T04:57:38;2.00;;;0.20;;
75854;SDS011;64502;59.976;30.316;2023-02-11T05:00:04;1.52;;;0.30;;
75854;SDS011;64502;59.976;30.316;2023-02-11T05:02:30;2.33;;;0.20;;
75854;SDS011;64502;59.976;30.316;2023-02-11T05:04:56;4.13;;;0.20;;
75854;SDS011;64502;59.976;30.316;2023-02-11T05:07:21;6.05;;;0.28;;
75854;SDS011;64502;59.976;30.316;2023-02-11T05:09:47;2.63;;;0.45;;
75854;SDS011;64502;59.976;30.316;2023-02-11T05:12:13;2.25;;;0.28;;
75854;SDS011;64502;59.976;30.316;2023-02-11T05:14:38;3.67;;;0.30;;
75854;SDS011;64502;59.976;30.316;2023-02-11T05:17:04;3.85;;;0.60;;
75854;SDS011;64502;59.976;30.316;2023-02-11T05:19:29;2.38;;;0.32;;
75854;SDS011;64502;59.976;30.316;2023-02-11T05:21:55;2.72;;;0.20;;
75854;SDS011;64502;59.976;30.316;2023-02-11T05:24:21;3.15;;;0.30;;
75854;SDS011;64502;59.976;30.316;2023-02-11T05:26:46;5.53;;;0.47;;
75854;SDS011;64502;59.976;30.316;2023-02-11T05:29:12;2.15;;;0.30;;
75854;SDS011;64502;59.976;30.316;2023-02-11T05:31:38;6.05;;;0.50;;
75854;SDS011;64502;59.976;30.316;2023-02-11T05:34:03;2.63;;;0.35;;
75854;SDS011;64502;59.976;30.316;2023-02-11T05:36:28;3.05;;;0.35;;
75854;SDS011;64502;59.976;30.316;2023-02-11T05:38:54;2.28;;;0.30;;
75854;SDS011;64502;59.976;30.316;2023-02-11T05:41:20;4.45;;;0.40;;
75854;SDS011;64502;59.976;30.316;2023-02-11T05:43:47;4.00;;;0.43;;
75854;SDS011;64502;59.976;30.316;2023-02-11T05:46:15;4.28;;;0.50;;
75854;SDS011;64502;59.976;30.316;2023-02-11T05:48:41;2.42;;;0.45;;
75854;SDS011;64502;59.976;30.316;2023-02-11T05:51:07;1.52;;;0.32;;
75854;SDS011;64502;59.976;30.316;2023-02-11T05:53:32;3.00;;;0.40;;
75854;SDS011;64502;59.976;30.316;2023-02-11T05:55:58;2.72;;;0.28;;
75854;SDS011;64502;59.976;30.316;2023-02-11T05:58:24;1.98;;;0.30;;
75854;SDS011;64502;59.976;30.316;2023-02-11T06:00:49;5.43;;;0.60;;
75854;SDS011;64502;59.976;30.316;2023-02-11T06:03:15;7.28;;;0.80;;
75854;SDS011;64502;59.976;30.316;2023-02-11T06:05:41;2.80;;;0.28;;
75854;SDS011;64502;59.976;30.316;2023-02-11T06:08:07;3.22;;;0.40;;
75854;SDS011;64502;59.976;30.316;2023-02-11T06:10:33;3.42;;;0.80;;
75854;SDS011;64502;59.976;30.316;2023-02-11T06:12:58;7.00;;;0.70;;
75854;SDS011;64502;59.976;30.316;2023-02-11T06:15:25;6.53;;;0.50;;
75854;SDS011;64502;59.976;30.316;2023-02-11T06:17:50;2.53;;;0.50;;
75854;SDS011;64502;59.976;30.316;2023-02-11T06:20:16;3.88;;;0.57;;
75854;SDS011;64502;59.976;30.316;2023-02-11T06:22:42;2.67;;;0.85;;
75854;SDS011;64502;59.976;30.316;2023-02-11T06:25:07;1.83;;;0.40;;
75854;SDS011;64502;59.976;30.316;2023-02-11T06:27:34;5.00;;;0.50;;
75854;SDS011;64502;59.976;30.316;2023-02-11T06:30:00;3.97;;;0.40;;
75854;SDS011;64502;59.976;30.316;2023-02-11T06:32:27;4.65;;;0.82;;
75854;SDS011;64502;59.976;30.316;2023-02-11T06:34:52;2.53;;;0.60;;
75854;SDS011;64502;59.976;30.316;2023-02-11T06:37:18;3.55;;;0.32;;
75854;SDS011;64502;59.976;30.316;2023-02-11T06:39:44;1.40;;;0.55;;
75854;SDS011;64502;59.976;30.316;2023-02-11T06:42:09;8.10;;;0.70;;
75854;SDS011;64502;59.976;30.316;2023-02-11T06:44:35;5.55;;;1.15;;
75854;SDS011;64502;59.976;30.316;2023-02-11T06:47:00;2.95;;;0.55;;
75854;SDS011;64502;59.976;30.316;2023-02-11T06:49:26;4.68;;;0.80;;
75854;SDS011;64502;59.976;30.316;2023-02-11T06:51:51;4.32;;;0.50;;
75854;SDS011;64502;59.976;30.316;2023-02-11T06:54:17;3.50;;;0.77;;
75854;SDS011;64502;59.976;30.316;2023-02-11T06:56:42;4.38;;;0.80;;
75854;SDS011;64502;59.976;30.316;2023-02-11T06:59:08;3.45;;;0.70;;
75854;SDS011;64502;59.976;30.316;2023-02-11T07:01:39;2.90;;;0.60;;
75854;SDS011;64502;59.976;30.316;2023-02-11T07:04:05;5.25;;;1.05;;
75854;SDS011;64502;59.976;30.316;2023-02-11T07:06:32;3.70;;;0.80;;
75854;SDS011;64502;59.976;30.316;2023-02-11T07:08:57;6.65;;;1.27;;
75854;SDS011;64502;59.976;30.316;2023-02-11T07:11:24;2.47;;;0.70;;
75854;SDS011;64502;59.976;30.316;2023-02-11T07:13:52;5.95;;;1.20;;
75854;SDS011;64502;59.976;30.316;2023-02-11T07:16:19;4.53;;;0.82;;
75854;SDS011;64502;59.976;30.316;2023-02-11T07:18:45;5.25;;;0.80;;
75854;SDS011;64502;59.976;30.316;2023-02-11T07:21:12;3.67;;;1.20;;
75854;SDS011;64502;59.976;30.316;2023-02-11T07:23:39;8.18;;;1.33;;
75854;SDS011;64502;59.976;30.316;2023-02-11T07:26:06;7.90;;;1.65;;
75854;SDS011;64502;59.976;30.316;2023-02-11T07:28:34;4.82;;;1.15;;
75854;SDS011;64502;59.976;30.316;2023-02-11T07:31:07;5.80;;;1.13;;
75854;SDS011;64502;59.976;30.316;2023-02-11T07:33:34;5.40;;;1.33;;
75854;SDS011;64502;59.976;30.316;2023-02-11T07:36:01;6.35;;;1.23;;
75854;SDS011;64502;59.976;30.316;2023-02-11T07:38:28;6.35;;;1.65;;
75854;SDS011;64502;59.976;30.316;2023-02-11T07:40:54;6.45;;;1.48;;
75854;SDS011;64502;59.976;30.316;2023-02-11T07:43:19;5.30;;;1.38;;
75854;SDS011;64502;59.976;30.316;2023-02-11T07:45:44;7.57;;;1.55;;
75854;SDS011;64502;59.976;30.316;2023-02-11T07:48:10;5.05;;;1.42;;
75854;SDS011;64502;59.976;30.316;2023-02-11T07:50:35;9.85;;;2.35;;
75854;SDS011;64502;59.976;30.316;2023-02-11T07:53:01;6.10;;;1.75;;
75854;SDS011;64502;59.976;30.316;2023-02-11T07:55:27;8.27;;;2.08;;
75854;SDS011;64502;59.976;30.316;2023-02-11T07:57:53;6.78;;;1.95;;
75854;SDS011;64502;59.976;30.316;2023-02-11T08:00:18;5.70;;;1.92;;
75854;SDS011;64502;59.976;30.316;2023-02-11T08:02:43;6.07;;;2.08;;
75854;SDS011;64502;59.976;30.316;2023-02-11T08:05:09;7.75;;;2.25;;
75854;SDS011;64502;59.976;30.316;2023-02-11T08:07:35;6.90;;;1.95;;
75854;SDS011;64502;59.976;30.316;2023-02-11T08:10:00;10.32;;;1.95;;
75854;SDS011;64502;59.976;30.316;2023-02-11T08:12:26;6.18;;;1.48;;
75854;SDS011;64502;59.976;30.316;2023-02-11T08:14:51;7.20;;;2.22;;
75854;SDS011;64502;59.976;30.316;2023-02-11T08:17:17;7.57;;;2.97;;
75854;SDS011;64502;59.976;30.316;2023-02-11T08:19:42;10.98;;;3.30;;
75854;SDS011;64502;59.976;30.316;2023-02-11T08:22:08;7.22;;;2.25;;
75854;SDS011;64502;59.976;30.316;2023-02-11T08:24:33;5.85;;;1.98;;
75854;SDS011;64502;59.976;30.316;2023-02-11T08:26:59;9.77;;;2.45;;
75854;SDS011;64502;59.976;30.316;2023-02-11T08:29:24;9.18;;;2.45;;
75854;SDS011;64502;59.976;30.316;2023-02-11T08:31:50;8.27;;;3.08;;
75854;SDS011;64502;59.976;30.316;2023-02-11T08:34:15;8.25;;;2.53;;
75854;SDS011;64502;59.976;30.316;2023-02-11T08:36:43;10.57;;;2.80;;
75854;SDS011;64502;59.976;30.316;2023-02-11T08:39:14;8.45;;;3.50;;
75854;SDS011;64502;59.976;30.316;2023-02-11T08:41:50;6.65;;;2.65;;
75854;SDS011;64502;59.976;30.316;2023-02-11T08:44:18;5.78;;;2.67;;
75854;SDS011;64502;59.976;30.316;2023-02-11T08:46:44;8.05;;;3.08;;
75854;SDS011;64502;59.976;30.316;2023-02-11T08:49:11;9.18;;;3.00;;
75854;SDS011;64502;59.976;30.316;2023-02-11T08:51:36;6.82;;;3.00;;
75854;SDS011;64502;59.976;30.316;2023-02-11T08:54:02;8.00;;;3.53;;
75854;SDS011;64502;59.976;30.316;2023-02-11T08:56:27;8.82;;;3.28;;
75854;SDS011;64502;59.976;30.316;2023-02-11T08:58:55;10.70;;;3.83;;
75854;SDS011;64502;59.976;30.316;2023-02-11T09:01:22;9.15;;;3.38;;
75854;SDS011;64502;59.976;30.316;2023-02-11T09:03:49;9.68;;;3.00;;
75854;SDS011;64502;59.976;30.316;2023-02-11T09:06:15;8.40;;;2.67;;
75854;SDS011;64502;59.976;30.316;2023-02-11T09:08:45;7.78;;;2.40;;
75854;SDS011;64502;59.976;30.316;2023-02-11T09:11:16;11.93;;;2.10;;
75854;SDS011;64502;59.976;30.316;2023-02-11T09:13:43;7.05;;;2.75;;
75854;SDS011;64502;59.976;30.316;2023-02-11T09:16:14;8.35;;;3.17;;
75854;SDS011;64502;59.976;30.316;2023-02-11T09:18:42;8.73;;;3.10;;
75854;SDS011;64502;59.976;30.316;2023-02-11T09:21:09;8.23;;;2.83;;
75854;SDS011;64502;59.976;30.316;2023-02-11T09:23:36;9.80;;;3.47;;
75854;SDS011;64502;59.976;30.316;2023-02-11T09:26:05;12.48;;;3.35;;
75854;SDS011;64502;59.976;30.316;2023-02-11T09:28:32;10.25;;;3.55;;
75854;SDS011;64502;59.976;30.316;2023-02-11T09:30:57;10.65;;;2.97;;
75854;SDS011;64502;59.976;30.316;2023-02-11T09:33:23;8.80;;;3.05;;
75854;SDS011;64502;59.976;30.316;2023-02-11T09:35:48;11.35;;;3.40;;
75854;SDS011;64502;59.976;30.316;2023-02-11T09:38:14;8.20;;;3.03;;
75854;SDS011;64502;59.976;30.316;2023-02-11T09:40:43;10.15;;;3.17;;
75854;SDS011;64502;59.976;30.316;2023-02-11T09:45:41;6.70;;;2.85;;
75854;SDS011;64502;59.976;30.316;2023-02-11T09:48:14;10.68;;;3.20;;
75854;SDS011;64502;59.976;30.316;2023-02-11T09:50:49;13.30;;;3.53;;
75854;SDS011;64502;59.976;30.316;2023-02-11T09:53:22;8.73;;;2.78;;
75854;SDS011;64502;59.976;30.316;2023-02-11T09:55:54;9.35;;;2.80;;
75854;SDS011;64502;59.976;30.316;2023-02-11T09:58:33;7.65;;;2.53;;
75854;SDS011;64502;59.976;30.316;2023-02-11T10:06:35;6.88;;;2.25;;
75854;SDS011;64502;59.976;30.316;2023-02-11T10:09:20;6.90;;;1.92;;
75854;SDS011;64502;59.976;30.316;2023-02-11T10:15:04;7.90;;;2.35;;
75854;SDS011;64502;59.976;30.316;2023-02-11T10:17:51;7.03;;;2.35;;
75854;SDS011;64502;59.976;30.316;2023-02-11T10:23:24;9.25;;;2.03;;
75854;SDS011;64502;59.976;30.316;2023-02-11T10:25:55;7.15;;;1.63;;
75854;SDS011;64502;59.976;30.316;2023-02-11T10:28:26;8.70;;;1.85;;
75854;SDS011;64502;59.976;30.316;2023-02-11T10:33:38;5.20;;;1.88;;
75854;SDS011;64502;59.976;30.316;2023-02-11T10:36:05;4.93;;;1.40;;
75854;SDS011;64502;59.976;30.316;2023-02-11T10:38:31;8.30;;;1.65;;
75854;SDS011;64502;59.976;30.316;2023-02-11T10:40:57;6.05;;;1.90;;
75854;SDS011;64502;59.976;30.316;2023-02-11T10:43:25;7.95;;;1.95;;
75854;SDS011;64502;59.976;30.316;2023-02-11T10:45:53;5.55;;;1.83;;
75854;SDS011;64502;59.976;30.316;2023-02-11T10:53:34;4.38;;;1.02;;
75854;SDS011;64502;59.976;30.316;2023-02-11T10:56:00;5.82;;;1.20;;
75854;SDS011;64502;59.976;30.316;2023-02-11T10:58:31;4.38;;;1.05;;
75854;SDS011;64502;59.976;30.316;2023-02-11T11:01:05;4.55;;;0.95;;
75854;SDS011;64502;59.976;30.316;2023-02-11T11:03:53;4.68;;;1.25;;
75854;SDS011;64502;59.976;30.316;2023-02-11T11:06:26;4.18;;;0.93;;
75854;SDS011;64502;59.976;30.316;2023-02-11T11:08:55;4.72;;;1.02;;
75854;SDS011;64502;59.976;30.316;2023-02-11T11:11:21;6.63;;;1.33;;
75854;SDS011;64502;59.976;30.316;2023-02-11T11:18:52;4.60;;;1.50;;
75854;SDS011;64502;59.976;30.316;2023-02-11T11:21:45;4.95;;;1.50;;
75854;SDS011;64502;59.976;30.316;2023-02-11T11:26:58;4.20;;;1.17;;
75854;SDS011;64502;59.976;30.316;2023-02-11T11:29:32;5.60;;;1.17;;
75854;SDS011;64502;59.976;30.316;2023-02-11T11:34:48;5.97;;;1.50;;
75854;SDS011;64502;59.976;30.316;2023-02-11T11:42:33;4.20;;;1.30;;
75854;SDS011;64502;59.976;30.316;2023-02-11T11:45:01;6.45;;;1.52;;
75854;SDS011;64502;59.976;30.316;2023-02-11T11:53:14;3.92;;;1.08;;
75854;SDS011;64502;59.976;30.316;2023-02-11T11:58:43;6.65;;;1.10;;
75854;SDS011;64502;59.976;30.316;2023-02-11T12:09:52;3.50;;;1.10;;
75854;SDS011;64502;59.976;30.316;2023-02-11T12:15:12;5.95;;;1.05;;
75854;SDS011;64502;59.976;30.316;2023-02-11T12:17:55;4.70;;;1.02;;
75854;SDS011;64502;59.976;30.316;2023-02-11T12:25:55;4.70;;;0.60;;
75854;SDS011;64502;59.976;30.316;2023-02-11T12:31:22;2.38;;;0.75;;
75854;SDS011;64502;59.976;30.316;2023-02-11T12:45:37;6.63;;;0.98;;
75854;SDS011;64502;59.976;30.316;2023-02-11T12:53:39;4.90;;;1.10;;
75854;SDS011;64502;59.976;30.316;2023-02-11T12:56:35;6.22;;;1.55;;
75854;SDS011;64502;59.976;30.316;2023-02-11T12:59:16;8.57;;;1.20;;
75854;SDS011;64502;59.976;30.316;2023-02-11T13:01:53;4.45;;;0.93;;
75854;SDS011;64502;59.976;30.316;2023-02-11T13:04:27;3.75;;;1.08;;
75854;SDS011;64502;59.976;30.316;2023-02-11T13:07:01;11.07;;;1.17;;
75854;SDS011;64502;59.976;30.316;2023-02-11T13:09:44;4.38;;;0.98;;
75854;SDS011;64502;59.976;30.316;2023-02-11T13:12:15;6.72;;;1.38;;
75854;SDS011;64502;59.976;30.316;2023-02-11T13:15:05;6.35;;;0.73;;
75854;SDS011;64502;59.976;30.316;2023-02-11T13:17:39;5.78;;;1.17;;
75854;SDS011;64502;59.976;30.316;2023-02-11T13:20:42;4.25;;;0.68;;
75854;SDS011;64502;59.976;30.316;2023-02-11T13:31:33;7.43;;;1.45;;
75854;SDS011;64502;59.976;30.316;2023-02-11T13:33:58;2.30;;;0.57;;
75854;SDS011;64502;59.976;30.316;2023-02-11T13:36:24;7.60;;;1.85;;
75854;SDS011;64502;59.976;30.316;2023-02-11T13:38:53;6.80;;;0.73;;
75854;SDS011;64502;59.976;30.316;2023-02-11T13:41:23;6.80;;;1.23;;
75854;SDS011;64502;59.976;30.316;2023-02-11T13:43:56;6.80;;;0.95;;
75854;SDS011;64502;59.976;30.316;2023-02-11T13:49:32;4.93;;;1.10;;
75854;SDS011;64502;59.976;30.316;2023-02-11T13:54:37;6.55;;;1.02;;
75854;SDS011;64502;59.976;30.316;2023-02-11T13:59:45;3.47;;;0.77;;
75854;SDS011;64502;59.976;30.316;2023-02-11T14:13:23;5.78;;;1.10;;
75854;SDS011;64502;59.976;30.316;2023-02-11T14:18:36;9.27;;;2.42;;
75854;SDS011;64502;59.976;30.316;2023-02-11T14:21:09;5.05;;;1.50;;
75854;SDS011;64502;59.976;30.316;2023-02-11T14:23:37;4.07;;;1.10;;
75854;SDS011;64502;59.976;30.316;2023-02-11T14:26:20;4.43;;;1.13;;
75854;SDS011;64502;59.976;30.316;2023-02-11T14:32:29;5.30;;;1.50;;
75854;SDS011;64502;59.976;30.316;2023-02-11T14:34:54;6.40;;;1.77;;
75854;SDS011;64502;59.976;30.316;2023-02-11T14:37:44;3.83;;;1.42;;
75854;SDS011;64502;59.976;30.316;2023-02-11T14:42:55;8.00;;;1.17;;
75854;SDS011;64502;59.976;30.316;2023-02-11T14:45:27;6.50;;;0.88;;
75854;SDS011;64502;59.976;30.316;2023-02-11T14:50:40;3.88;;;1.13;;
75854;SDS011;64502;59.976;30.316;2023-02-11T14:53:12;3.45;;;1.15;;
75854;SDS011;64502;59.976;30.316;2023-02-11T14:55:41;5.38;;;1.70;;
75854;SDS011;64502;59.976;30.316;2023-02-11T14:58:15;3.83;;;0.98;;
75854;SDS011;64502;59.976;30.316;2023-02-11T15:00:58;3.80;;;0.68;;
75854;SDS011;64502;59.976;30.316;2023-02-11T15:03:30;4.32;;;0.77;;
75854;SDS011;64502;59.976;30.316;2023-02-11T15:06:00;4.57;;;1.35;;
75854;SDS011;64502;59.976;30.316;2023-02-11T15:08:46;10.48;;;1.00;;
75854;SDS011;64502;59.976;30.316;2023-02-11T15:11:18;5.60;;;0.80;;
75854;SDS011;64502;59.976;30.316;2023-02-11T15:13:45;3.33;;;0.65;;
75854;SDS011;64502;59.976;30.316;2023-02-11T15:16:22;7.20;;;0.88;;
75854;SDS011;64502;59.976;30.316;2023-02-11T15:18:55;7.38;;;1.23;;
75854;SDS011;64502;59.976;30.316;2023-02-11T15:21:26;6.03;;;0.95;;
75854;SDS011;64502;59.976;30.316;2023-02-11T15:23:59;3.15;;;0.60;;
75854;SDS011;64502;59.976;30.316;2023-02-11T15:26:32;6.20;;;0.82;;
75854;SDS011;64502;59.976;30.316;2023-02-11T15:28:58;2.97;;;0.60;;
75854;SDS011;64502;59.976;30.316;2023-02-11T15:31:25;3.97;;;0.60;;
75854;SDS011;64502;59.976;30.316;2023-02-11T15:33:52;2.88;;;0.85;;
75854;SDS011;64502;59.976;30.316;2023-02-11T15:36:19;6.20;;;0.60;;
75854;SDS011;64502;59.976;30.316;2023-02-11T15:39:35;5.78;;;1.13;;
75854;SDS011;64502;59.976;30.316;2023-02-11T15:41:39;3.40;;;0.63;;
75854;SDS011;64502;59.976;30.316;2023-02-11T15:44:24;6.68;;;0.80;;
75854;SDS011;64502;59.976;30.316;2023-02-11T15:46:50;4.90;;;0.85;;
75854;SDS011;64502;59.976;30.316;2023-02-11T15:49:16;6.60;;;1.23;;
75854;SDS011;64502;59.976;30.316;2023-02-11T15:51:43;3.40;;;0.50;;
75854;SDS011;64502;59.976;30.316;2023-02-11T15:54:17;7.65;;;0.88;;
75854;SDS011;64502;59.976;30.316;2023-02-11T15:56:47;4.28;;;0.52;;
75854;SDS011;64502;59.976;30.316;2023-02-11T15:59:16;2.85;;;0.43;;
75854;SDS011;64502;59.976;30.316;2023-02-11T16:04:18;3.78;;;0.50;;
75854;SDS011;64502;59.976;30.316;2023-02-11T16:06:49;4.43;;;0.85;;
75854;SDS011;64502;59.976;30.316;2023-02-11T16:19:33;7.55;;;0.63;;
75854;SDS011;64502;59.976;30.316;2023-02-11T16:22:00;5.32;;;0.90;;
75854;SDS011;64502;59.976;30.316;2023-02-11T16:24:33;2.90;;;0.60;;
75854;SDS011;64502;59.976;30.316;2023-02-11T16:27:05;3.10;;;0.50;;
75854;SDS011;64502;59.976;30.316;2023-02-11T16:29:43;4.83;;;0.67;;
75854;SDS011;64502;59.976;30.316;2023-02-11T16:32:18;5.68;;;0.95;;
75854;SDS011;64502;59.976;30.316;2023-02-11T16:34:46;4.63;;;0.98;;
75854;SDS011;64502;59.976;30.316;2023-02-11T16:37:12;6.10;;;1.17;;
75854;SDS011;64502;59.976;30.316;2023-02-11T16:39:38;2.90;;;0.40;;
75854;SDS011;64502;59.976;30.316;2023-02-11T16:42:04;3.15;;;0.60;;
75854;SDS011;64502;59.976;30.316;2023-02-11T16:44:31;3.63;;;0.57;;
75854;SDS011;64502;59.976;30.316;2023-02-11T16:46:58;5.43;;;0.73;;
75854;SDS011;64502;59.976;30.316;2023-02-11T16:49:26;6.38;;;0.73;;
75854;SDS011;64502;59.976;30.316;2023-02-11T16:51:53;4.07;;;0.85;;
75854;SDS011;64502;59.976;30.316;2023-02-11T16:54:21;7.28;;;0.85;;
75854;SDS011;64502;59.976;30.316;2023-02-11T16:56:47;4.10;;;0.93;;
75854;SDS011;64502;59.976;30.316;2023-02-11T16:59:13;5.65;;;0.55;;
75854;SDS011;64502;59.976;30.316;2023-02-11T17:01:39;3.20;;;0.70;;
75854;SDS011;64502;59.976;30.316;2023-02-11T17:04:06;2.35;;;0.55;;
75854;SDS011;64502;59.976;30.316;2023-02-11T17:06:40;3.28;;;0.70;;
75854;SDS011;64502;59.976;30.316;2023-02-11T17:09:05;4.20;;;0.65;;
75854;SDS011;64502;59.976;30.316;2023-02-11T17:11:32;3.00;;;0.50;;
75854;SDS011;64502;59.976;30.316;2023-02-11T17:13:57;9.52;;;0.88;;
75854;SDS011;64502;59.976;30.316;2023-02-11T17:16:23;3.53;;;0.65;;
75854;SDS011;64502;59.976;30.316;2023-02-11T17:18:49;4.78;;;0.90;;
75854;SDS011;64502;59.976;30.316;2023-02-11T17:21:15;5.75;;;0.98;;
75854;SDS011;64502;59.976;30.316;2023-02-11T17:23:41;3.75;;;0.77;;
75854;SDS011;64502;59.976;30.316;2023-02-11T17:26:07;8.45;;;0.82;;
75854;SDS011;64502;59.976;30.316;2023-02-11T17:28:33;4.22;;;0.85;;
75854;SDS011;64502;59.976;30.316;2023-02-11T17:30:59;2.72;;;0.85;;
75854;SDS011;64502;59.976;30.316;2023-02-11T17:33:25;4.40;;;0.40;;
75854;SDS011;64502;59.976;30.316;2023-02-11T17:35:51;3.10;;;0.52;;
75854;SDS011;64502;59.976;30.316;2023-02-11T17:38:16;2.53;;;0.40;;
75854;SDS011;64502;59.976;30.316;2023-02-11T17:40:42;6.32;;;0.55;;
75854;SDS011;64502;59.976;30.316;2023-02-11T17:43:07;4.72;;;0.40;;
75854;SDS011;64502;59.976;30.316;2023-02-11T17:45:33;2.10;;;0.52;;
75854;SDS011;64502;59.976;30.316;2023-02-11T17:47:58;4.90;;;0.70;;
75854;SDS011;64502;59.976;30.316;2023-02-11T17:50:24;2.03;;;0.20;;
75854;SDS011;64502;59.976;30.316;2023-02-11T17:52:49;4.53;;;1.00;;